sensor_id;sensor_type;location;lat;lon;timestamp;P1;durP1;ratioP1;P2;durP2;ratioP2
9449;SDS011;4763;48.370;10.874;2023-08-30T00:00:15;8.23;;;7.43;;
9449;SDS011;4763;48.370;10.874;2023-08-30T00:02:42;8.57;;;7.67;;
9449;SDS011;4763;48.370;10.874;2023-08-30T00:05:09;9.07;;;8.17;;
9449;SDS011;4763;48.370;10.874;2023-08-30T00:07:36;9.60;;;8.60;;
9449;SDS011;4763;48.370;10.874;2023-08-30T00:10:03;9.10;;;8.20;;
9449;SDS011;4763;48.370;10.874;2023-08-30T00:12:31;10.57;;;8.43;;
9449;SDS011;4763;48.370;10.874;2023-08-30T00:14:59;8.57;;;7.77;;
9449;SDS011;4763;48.370;10.874;2023-08-30T00:17:26;8.67;;;7.97;;
9449;SDS011;4763;48.370;10.874;2023-08-30T00:19:53;9.60;;;8.60;;
9449;SDS011;4763;48.370;10.874;2023-08-30T00:22:21;8.33;;;7.47;;
9449;SDS011;4763;48.370;10.874;2023-08-30T00:24:48;9.50;;;8.50;;
9449;SDS011;4763;48.370;10.874;2023-08-30T00:27:15;8.33;;;7.53;;
9449;SDS011;4763;48.370;10.874;2023-08-30T00:29:42;10.10;;;8.57;;
9449;SDS011;4763;48.370;10.874;2023-08-30T00:32:10;8.47;;;7.67;;
9449;SDS011;4763;48.370;10.874;2023-08-30T00:34:38;9.37;;;8.43;;
9449;SDS011;4763;48.370;10.874;2023-08-30T00:37:05;8.50;;;7.60;;
9449;SDS011;4763;48.370;10.874;2023-08-30T00:39:32;8.77;;;7.93;;
9449;SDS011;4763;48.370;10.874;2023-08-30T00:41:58;8.03;;;7.33;;
9449;SDS011;4763;48.370;10.874;2023-08-30T00:44:30;8.00;;;7.20;;
9449;SDS011;4763;48.370;10.874;2023-08-30T00:46:57;10.90;;;7.60;;
9449;SDS011;4763;48.370;10.874;2023-08-30T00:49:25;8.93;;;8.03;;
9449;SDS011;4763;48.370;10.874;2023-08-30T00:51:52;10.20;;;8.67;;
9449;SDS011;4763;48.370;10.874;2023-08-30T00:54:20;8.27;;;7.47;;
9449;SDS011;4763;48.370;10.874;2023-08-30T00:56:47;10.13;;;8.67;;
9449;SDS011;4763;48.370;10.874;2023-08-30T00:59:15;8.77;;;7.93;;
9449;SDS011;4763;48.370;10.874;2023-08-30T01:01:42;10.10;;;9.10;;
9449;SDS011;4763;48.370;10.874;2023-08-30T01:04:11;9.90;;;8.40;;
9449;SDS011;4763;48.370;10.874;2023-08-30T01:06:39;9.00;;;8.20;;
9449;SDS011;4763;48.370;10.874;2023-08-30T01:09:07;9.07;;;8.17;;
9449;SDS011;4763;48.370;10.874;2023-08-30T01:11:36;8.73;;;7.83;;
9449;SDS011;4763;48.370;10.874;2023-08-30T01:14:18;9.57;;;8.67;;
9449;SDS011;4763;48.370;10.874;2023-08-30T01:16:48;9.20;;;8.30;;
9449;SDS011;4763;48.370;10.874;2023-08-30T01:19:19;10.33;;;8.53;;
9449;SDS011;4763;48.370;10.874;2023-08-30T01:22:00;8.30;;;7.50;;
9449;SDS011;4763;48.370;10.874;2023-08-30T01:24:37;9.10;;;8.20;;
9449;SDS011;4763;48.370;10.874;2023-08-30T01:27:11;10.63;;;7.47;;
9449;SDS011;4763;48.370;10.874;2023-08-30T01:29:42;8.47;;;7.67;;
9449;SDS011;4763;48.370;10.874;2023-08-30T01:32:11;9.70;;;8.80;;
9449;SDS011;4763;48.370;10.874;2023-08-30T01:34:39;8.60;;;7.80;;
9449;SDS011;4763;48.370;10.874;2023-08-30T01:37:08;9.60;;;8.60;;
9449;SDS011;4763;48.370;10.874;2023-08-30T01:39:38;9.30;;;8.40;;
9449;SDS011;4763;48.370;10.874;2023-08-30T01:42:06;9.70;;;8.20;;
9449;SDS011;4763;48.370;10.874;2023-08-30T01:44:35;9.00;;;8.10;;
9449;SDS011;4763;48.370;10.874;2023-08-30T01:47:04;8.67;;;7.87;;
9449;SDS011;4763;48.370;10.874;2023-08-30T01:49:32;11.10;;;8.63;;
9449;SDS011;4763;48.370;10.874;2023-08-30T01:52:02;10.87;;;8.97;;
9449;SDS011;4763;48.370;10.874;2023-08-30T01:54:29;9.60;;;8.60;;
9449;SDS011;4763;48.370;10.874;2023-08-30T01:56:58;8.60;;;7.70;;
9449;SDS011;4763;48.370;10.874;2023-08-30T01:59:24;9.33;;;8.13;;
9449;SDS011;4763;48.370;10.874;2023-08-30T02:01:53;9.73;;;8.40;;
9449;SDS011;4763;48.370;10.874;2023-08-30T02:04:20;9.10;;;8.17;;
9449;SDS011;4763;48.370;10.874;2023-08-30T02:06:48;9.40;;;7.90;;
9449;SDS011;4763;48.370;10.874;2023-08-30T02:09:27;8.33;;;7.53;;
9449;SDS011;4763;48.370;10.874;2023-08-30T02:11:58;9.93;;;8.93;;
9449;SDS011;4763;48.370;10.874;2023-08-30T02:14:28;8.23;;;7.53;;
9449;SDS011;4763;48.370;10.874;2023-08-30T02:17:00;12.27;;;9.07;;
9449;SDS011;4763;48.370;10.874;2023-08-30T02:19:28;9.87;;;8.97;;
9449;SDS011;4763;48.370;10.874;2023-08-30T02:21:55;9.40;;;8.40;;
9449;SDS011;4763;48.370;10.874;2023-08-30T02:24:22;10.23;;;9.23;;
9449;SDS011;4763;48.370;10.874;2023-08-30T02:26:49;8.63;;;7.83;;
9449;SDS011;4763;48.370;10.874;2023-08-30T02:29:16;9.70;;;8.53;;
9449;SDS011;4763;48.370;10.874;2023-08-30T02:31:43;8.57;;;7.77;;
9449;SDS011;4763;48.370;10.874;2023-08-30T02:34:11;9.33;;;8.43;;
9449;SDS011;4763;48.370;10.874;2023-08-30T02:36:38;9.53;;;8.60;;
9449;SDS011;4763;48.370;10.874;2023-08-30T02:39:06;8.70;;;7.90;;
9449;SDS011;4763;48.370;10.874;2023-08-30T02:41:32;9.43;;;8.43;;
9449;SDS011;4763;48.370;10.874;2023-08-30T02:43:59;8.50;;;7.67;;
9449;SDS011;4763;48.370;10.874;2023-08-30T02:46:26;9.37;;;8.47;;
9449;SDS011;4763;48.370;10.874;2023-08-30T02:48:53;9.57;;;8.67;;
9449;SDS011;4763;48.370;10.874;2023-08-30T02:51:22;9.77;;;8.77;;
9449;SDS011;4763;48.370;10.874;2023-08-30T02:53:49;9.63;;;8.30;;
9449;SDS011;4763;48.370;10.874;2023-08-30T02:56:16;8.73;;;7.80;;
9449;SDS011;4763;48.370;10.874;2023-08-30T02:58:42;10.50;;;9.30;;
9449;SDS011;4763;48.370;10.874;2023-08-30T03:01:09;9.63;;;8.63;;
9449;SDS011;4763;48.370;10.874;2023-08-30T03:03:36;9.53;;;8.43;;
9449;SDS011;4763;48.370;10.874;2023-08-30T03:06:03;9.07;;;8.13;;
9449;SDS011;4763;48.370;10.874;2023-08-30T03:08:31;9.10;;;8.20;;
9449;SDS011;4763;48.370;10.874;2023-08-30T03:11:06;8.93;;;8.03;;
9449;SDS011;4763;48.370;10.874;2023-08-30T03:13:34;10.50;;;9.43;;
9449;SDS011;4763;48.370;10.874;2023-08-30T03:16:02;8.73;;;7.77;;
9449;SDS011;4763;48.370;10.874;2023-08-30T03:18:35;12.60;;;8.53;;
9449;SDS011;4763;48.370;10.874;2023-08-30T03:21:02;10.87;;;8.80;;
9449;SDS011;4763;48.370;10.874;2023-08-30T03:23:29;9.60;;;8.60;;
9449;SDS011;4763;48.370;10.874;2023-08-30T03:25:58;9.17;;;8.27;;
9449;SDS011;4763;48.370;10.874;2023-08-30T03:28:24;9.87;;;8.87;;
9449;SDS011;4763;48.370;10.874;2023-08-30T03:30:52;9.17;;;8.27;;
9449;SDS011;4763;48.370;10.874;2023-08-30T03:33:19;9.47;;;8.57;;
9449;SDS011;4763;48.370;10.874;2023-08-30T03:35:46;12.10;;;9.60;;
9449;SDS011;4763;48.370;10.874;2023-08-30T03:38:12;9.50;;;8.50;;
9449;SDS011;4763;48.370;10.874;2023-08-30T03:40:39;10.07;;;9.00;;
9449;SDS011;4763;48.370;10.874;2023-08-30T03:43:07;9.73;;;8.73;;
9449;SDS011;4763;48.370;10.874;2023-08-30T03:45:35;8.83;;;7.93;;
9449;SDS011;4763;48.370;10.874;2023-08-30T03:48:02;11.40;;;9.73;;
9449;SDS011;4763;48.370;10.874;2023-08-30T03:50:29;8.83;;;7.93;;
9449;SDS011;4763;48.370;10.874;2023-08-30T03:52:56;9.13;;;8.23;;
9449;SDS011;4763;48.370;10.874;2023-08-30T03:55:23;10.30;;;9.20;;
9449;SDS011;4763;48.370;10.874;2023-08-30T03:57:49;9.87;;;8.80;;
9449;SDS011;4763;48.370;10.874;2023-08-30T04:00:18;10.63;;;9.50;;
9449;SDS011;4763;48.370;10.874;2023-08-30T04:02:45;10.67;;;8.90;;
9449;SDS011;4763;48.370;10.874;2023-08-30T04:05:12;9.93;;;8.73;;
9449;SDS011;4763;48.370;10.874;2023-08-30T04:07:39;9.43;;;8.43;;
9449;SDS011;4763;48.370;10.874;2023-08-30T04:10:06;12.03;;;9.30;;
9449;SDS011;4763;48.370;10.874;2023-08-30T04:12:35;10.40;;;9.03;;
9449;SDS011;4763;48.370;10.874;2023-08-30T04:15:05;9.43;;;8.37;;
9449;SDS011;4763;48.370;10.874;2023-08-30T04:17:34;9.53;;;8.53;;
9449;SDS011;4763;48.370;10.874;2023-08-30T04:20:01;10.53;;;9.37;;
9449;SDS011;4763;48.370;10.874;2023-08-30T04:22:27;11.93;;;8.63;;
9449;SDS011;4763;48.370;10.874;2023-08-30T04:24:54;9.63;;;8.63;;
9449;SDS011;4763;48.370;10.874;2023-08-30T04:27:21;8.77;;;7.87;;
9449;SDS011;4763;48.370;10.874;2023-08-30T04:29:48;9.40;;;8.20;;
9449;SDS011;4763;48.370;10.874;2023-08-30T04:32:14;11.53;;;8.30;;
9449;SDS011;4763;48.370;10.874;2023-08-30T04:38:05;11.20;;;9.20;;
9449;SDS011;4763;48.370;10.874;2023-08-30T04:40:31;9.30;;;8.27;;
9449;SDS011;4763;48.370;10.874;2023-08-30T04:42:58;12.63;;;9.70;;
9449;SDS011;4763;48.370;10.874;2023-08-30T04:45:27;9.57;;;8.57;;
9449;SDS011;4763;48.370;10.874;2023-08-30T04:47:54;11.30;;;9.03;;
9449;SDS011;4763;48.370;10.874;2023-08-30T04:50:21;10.73;;;9.57;;
9449;SDS011;4763;48.370;10.874;2023-08-30T04:52:48;12.23;;;9.83;;
9449;SDS011;4763;48.370;10.874;2023-08-30T04:55:16;11.50;;;8.97;;
9449;SDS011;4763;48.370;10.874;2023-08-30T04:57:43;14.17;;;10.40;;
9449;SDS011;4763;48.370;10.874;2023-08-30T05:00:12;12.07;;;9.90;;
9449;SDS011;4763;48.370;10.874;2023-08-30T05:02:40;8.87;;;7.97;;
9449;SDS011;4763;48.370;10.874;2023-08-30T05:05:08;10.17;;;8.50;;
9449;SDS011;4763;48.370;10.874;2023-08-30T05:07:35;10.57;;;9.47;;
9449;SDS011;4763;48.370;10.874;2023-08-30T05:10:02;10.90;;;8.57;;
9449;SDS011;4763;48.370;10.874;2023-08-30T05:12:31;11.90;;;9.50;;
9449;SDS011;4763;48.370;10.874;2023-08-30T05:14:59;11.37;;;9.40;;
9449;SDS011;4763;48.370;10.874;2023-08-30T05:17:26;11.23;;;9.43;;
9449;SDS011;4763;48.370;10.874;2023-08-30T05:19:53;11.70;;;9.77;;
9449;SDS011;4763;48.370;10.874;2023-08-30T05:22:20;9.93;;;8.93;;
9449;SDS011;4763;48.370;10.874;2023-08-30T05:24:47;10.90;;;9.47;;
9449;SDS011;4763;48.370;10.874;2023-08-30T05:27:14;10.03;;;8.60;;
9449;SDS011;4763;48.370;10.874;2023-08-30T05:29:44;13.80;;;10.20;;
9449;SDS011;4763;48.370;10.874;2023-08-30T05:32:11;12.03;;;10.20;;
9449;SDS011;4763;48.370;10.874;2023-08-30T05:34:38;11.03;;;9.53;;
9449;SDS011;4763;48.370;10.874;2023-08-30T05:37:08;12.93;;;10.33;;
9449;SDS011;4763;48.370;10.874;2023-08-30T05:39:35;11.30;;;9.97;;
9449;SDS011;4763;48.370;10.874;2023-08-30T05:42:01;14.93;;;10.63;;
9449;SDS011;4763;48.370;10.874;2023-08-30T05:44:28;13.33;;;10.10;;
9449;SDS011;4763;48.370;10.874;2023-08-30T05:46:57;13.33;;;10.83;;
9449;SDS011;4763;48.370;10.874;2023-08-30T05:49:23;11.10;;;9.40;;
9449;SDS011;4763;48.370;10.874;2023-08-30T05:51:50;10.07;;;9.03;;
9449;SDS011;4763;48.370;10.874;2023-08-30T05:54:17;12.77;;;10.80;;
9449;SDS011;4763;48.370;10.874;2023-08-30T05:56:47;12.10;;;10.10;;
9449;SDS011;4763;48.370;10.874;2023-08-30T05:59:14;13.37;;;10.83;;
9449;SDS011;4763;48.370;10.874;2023-08-30T06:01:43;12.00;;;10.73;;
9449;SDS011;4763;48.370;10.874;2023-08-30T06:04:11;13.80;;;10.07;;
9449;SDS011;4763;48.370;10.874;2023-08-30T06:06:38;14.03;;;10.73;;
9449;SDS011;4763;48.370;10.874;2023-08-30T06:09:05;13.37;;;10.53;;
9449;SDS011;4763;48.370;10.874;2023-08-30T06:11:32;13.07;;;11.03;;
9449;SDS011;4763;48.370;10.874;2023-08-30T06:13:59;12.60;;;10.90;;
9449;SDS011;4763;48.370;10.874;2023-08-30T06:16:26;12.33;;;9.93;;
9449;SDS011;4763;48.370;10.874;2023-08-30T06:18:54;12.43;;;10.30;;
9449;SDS011;4763;48.370;10.874;2023-08-30T06:21:25;13.00;;;11.23;;
9449;SDS011;4763;48.370;10.874;2023-08-30T06:23:52;11.97;;;10.17;;
9449;SDS011;4763;48.370;10.874;2023-08-30T06:26:18;12.73;;;11.00;;
9449;SDS011;4763;48.370;10.874;2023-08-30T06:28:45;15.33;;;11.50;;
9449;SDS011;4763;48.370;10.874;2023-08-30T06:31:12;13.77;;;10.93;;
9449;SDS011;4763;48.370;10.874;2023-08-30T06:33:38;12.50;;;10.67;;
9449;SDS011;4763;48.370;10.874;2023-08-30T06:36:09;11.43;;;10.23;;
9449;SDS011;4763;48.370;10.874;2023-08-30T06:38:38;14.47;;;11.03;;
9449;SDS011;4763;48.370;10.874;2023-08-30T06:41:04;13.00;;;11.07;;
9449;SDS011;4763;48.370;10.874;2023-08-30T06:43:31;15.43;;;10.13;;
9449;SDS011;4763;48.370;10.874;2023-08-30T06:45:58;14.70;;;11.27;;
9449;SDS011;4763;48.370;10.874;2023-08-30T06:48:25;13.37;;;10.67;;
9449;SDS011;4763;48.370;10.874;2023-08-30T06:50:52;13.07;;;10.53;;
9449;SDS011;4763;48.370;10.874;2023-08-30T06:53:19;12.80;;;10.73;;
9449;SDS011;4763;48.370;10.874;2023-08-30T06:55:47;12.50;;;10.70;;
9449;SDS011;4763;48.370;10.874;2023-08-30T06:58:23;12.37;;;10.27;;
9449;SDS011;4763;48.370;10.874;2023-08-30T07:00:49;14.17;;;10.20;;
9449;SDS011;4763;48.370;10.874;2023-08-30T07:03:16;12.40;;;10.67;;
9449;SDS011;4763;48.370;10.874;2023-08-30T07:05:43;11.20;;;9.93;;
9449;SDS011;4763;48.370;10.874;2023-08-30T07:08:12;12.33;;;9.93;;
9449;SDS011;4763;48.370;10.874;2023-08-30T07:10:39;12.50;;;10.97;;
9449;SDS011;4763;48.370;10.874;2023-08-30T07:13:07;13.77;;;9.90;;
9449;SDS011;4763;48.370;10.874;2023-08-30T07:15:36;11.57;;;10.03;;
9449;SDS011;4763;48.370;10.874;2023-08-30T07:18:05;10.70;;;9.50;;
9449;SDS011;4763;48.370;10.874;2023-08-30T07:20:33;12.13;;;9.80;;
9449;SDS011;4763;48.370;10.874;2023-08-30T07:23:00;13.70;;;9.93;;
9449;SDS011;4763;48.370;10.874;2023-08-30T07:25:27;13.40;;;10.17;;
9449;SDS011;4763;48.370;10.874;2023-08-30T07:27:54;10.90;;;9.70;;
9449;SDS011;4763;48.370;10.874;2023-08-30T07:30:22;11.03;;;9.67;;
9449;SDS011;4763;48.370;10.874;2023-08-30T07:32:48;10.53;;;9.43;;
9449;SDS011;4763;48.370;10.874;2023-08-30T07:35:16;11.03;;;9.87;;
9449;SDS011;4763;48.370;10.874;2023-08-30T07:37:42;11.33;;;9.67;;
9449;SDS011;4763;48.370;10.874;2023-08-30T07:40:09;10.93;;;9.83;;
9449;SDS011;4763;48.370;10.874;2023-08-30T07:42:37;11.70;;;9.13;;
9449;SDS011;4763;48.370;10.874;2023-08-30T07:45:04;12.83;;;9.97;;
9449;SDS011;4763;48.370;10.874;2023-08-30T07:47:33;11.60;;;9.20;;
9449;SDS011;4763;48.370;10.874;2023-08-30T07:49:59;10.70;;;9.00;;
9449;SDS011;4763;48.370;10.874;2023-08-30T07:52:26;11.73;;;9.10;;
9449;SDS011;4763;48.370;10.874;2023-08-30T07:54:53;10.30;;;9.30;;
9449;SDS011;4763;48.370;10.874;2023-08-30T07:57:19;10.57;;;9.47;;
9449;SDS011;4763;48.370;10.874;2023-08-30T07:59:46;10.17;;;9.13;;
9449;SDS011;4763;48.370;10.874;2023-08-30T08:02:15;8.97;;;8.07;;
9449;SDS011;4763;48.370;10.874;2023-08-30T08:04:43;9.17;;;8.23;;
9449;SDS011;4763;48.370;10.874;2023-08-30T08:07:10;8.57;;;7.77;;
9449;SDS011;4763;48.370;10.874;2023-08-30T08:09:37;8.53;;;7.60;;
9449;SDS011;4763;48.370;10.874;2023-08-30T08:12:03;9.00;;;7.93;;
9449;SDS011;4763;48.370;10.874;2023-08-30T08:14:31;8.07;;;7.27;;
9449;SDS011;4763;48.370;10.874;2023-08-30T08:16:58;8.03;;;7.23;;
9449;SDS011;4763;48.370;10.874;2023-08-30T08:19:25;9.23;;;7.67;;
9449;SDS011;4763;48.370;10.874;2023-08-30T08:21:53;7.33;;;6.50;;
9449;SDS011;4763;48.370;10.874;2023-08-30T08:24:20;6.90;;;6.17;;
9449;SDS011;4763;48.370;10.874;2023-08-30T08:26:47;8.43;;;7.03;;
9449;SDS011;4763;48.370;10.874;2023-08-30T08:29:14;6.80;;;6.20;;
9449;SDS011;4763;48.370;10.874;2023-08-30T08:31:40;7.87;;;6.67;;
9449;SDS011;4763;48.370;10.874;2023-08-30T08:34:08;7.67;;;6.67;;
9449;SDS011;4763;48.370;10.874;2023-08-30T08:36:36;7.00;;;6.30;;
9449;SDS011;4763;48.370;10.874;2023-08-30T08:39:05;7.47;;;6.67;;
9449;SDS011;4763;48.370;10.874;2023-08-30T08:41:34;6.47;;;5.87;;
9449;SDS011;4763;48.370;10.874;2023-08-30T08:44:04;7.70;;;5.80;;
9449;SDS011;4763;48.370;10.874;2023-08-30T08:46:31;6.37;;;5.77;;
9449;SDS011;4763;48.370;10.874;2023-08-30T08:49:01;8.13;;;5.93;;
9449;SDS011;4763;48.370;10.874;2023-08-30T08:51:30;5.90;;;5.40;;
9449;SDS011;4763;48.370;10.874;2023-08-30T08:54:01;6.70;;;6.03;;
9449;SDS011;4763;48.370;10.874;2023-08-30T08:56:31;6.23;;;5.63;;
9449;SDS011;4763;48.370;10.874;2023-08-30T08:58:59;8.37;;;6.17;;
9449;SDS011;4763;48.370;10.874;2023-08-30T09:01:26;5.97;;;5.17;;
9449;SDS011;4763;48.370;10.874;2023-08-30T09:03:53;6.07;;;4.70;;
9449;SDS011;4763;48.370;10.874;2023-08-30T09:06:21;6.80;;;4.77;;
9449;SDS011;4763;48.370;10.874;2023-08-30T09:08:48;4.47;;;4.07;;
9449;SDS011;4763;48.370;10.874;2023-08-30T09:11:15;6.17;;;4.23;;
9449;SDS011;4763;48.370;10.874;2023-08-30T09:13:44;6.00;;;3.93;;
9449;SDS011;4763;48.370;10.874;2023-08-30T09:16:11;5.27;;;4.37;;
9449;SDS011;4763;48.370;10.874;2023-08-30T09:18:41;3.97;;;3.60;;
9449;SDS011;4763;48.370;10.874;2023-08-30T09:21:08;3.57;;;3.27;;
9449;SDS011;4763;48.370;10.874;2023-08-30T09:23:36;4.10;;;3.70;;
9449;SDS011;4763;48.370;10.874;2023-08-30T09:26:03;4.40;;;3.13;;
9449;SDS011;4763;48.370;10.874;2023-08-30T09:28:30;3.90;;;3.50;;
9449;SDS011;4763;48.370;10.874;2023-08-30T09:30:59;4.47;;;3.90;;
9449;SDS011;4763;48.370;10.874;2023-08-30T09:33:31;4.70;;;4.30;;
9449;SDS011;4763;48.370;10.874;2023-08-30T09:35:59;4.53;;;4.10;;
9449;SDS011;4763;48.370;10.874;2023-08-30T09:38:27;4.77;;;3.70;;
9449;SDS011;4763;48.370;10.874;2023-08-30T09:41:02;4.43;;;4.00;;
9449;SDS011;4763;48.370;10.874;2023-08-30T09:43:29;4.67;;;4.03;;
9449;SDS011;4763;48.370;10.874;2023-08-30T09:45:56;4.27;;;3.77;;
9449;SDS011;4763;48.370;10.874;2023-08-30T09:48:28;3.87;;;3.40;;
9449;SDS011;4763;48.370;10.874;2023-08-30T09:50:55;3.40;;;3.10;;
9449;SDS011;4763;48.370;10.874;2023-08-30T09:53:25;2.90;;;2.60;;
9449;SDS011;4763;48.370;10.874;2023-08-30T09:55:52;3.23;;;2.93;;
9449;SDS011;4763;48.370;10.874;2023-08-30T09:58:19;4.40;;;2.53;;
9449;SDS011;4763;48.370;10.874;2023-08-30T10:00:48;3.63;;;3.33;;
9449;SDS011;4763;48.370;10.874;2023-08-30T10:03:16;3.43;;;2.80;;
9449;SDS011;4763;48.370;10.874;2023-08-30T10:05:45;3.50;;;2.80;;
9449;SDS011;4763;48.370;10.874;2023-08-30T10:08:13;2.93;;;2.40;;
9449;SDS011;4763;48.370;10.874;2023-08-30T10:10:40;3.70;;;2.90;;
9449;SDS011;4763;48.370;10.874;2023-08-30T10:13:07;2.80;;;2.40;;
9449;SDS011;4763;48.370;10.874;2023-08-30T10:15:36;3.67;;;3.30;;
9449;SDS011;4763;48.370;10.874;2023-08-30T10:18:07;3.13;;;2.90;;
9449;SDS011;4763;48.370;10.874;2023-08-30T10:20:37;3.70;;;3.40;;
9449;SDS011;4763;48.370;10.874;2023-08-30T10:23:04;3.27;;;2.93;;
9449;SDS011;4763;48.370;10.874;2023-08-30T10:25:31;4.27;;;2.90;;
9449;SDS011;4763;48.370;10.874;2023-08-30T10:27:59;6.33;;;2.97;;
9449;SDS011;4763;48.370;10.874;2023-08-30T10:30:27;3.20;;;2.90;;
9449;SDS011;4763;48.370;10.874;2023-08-30T10:32:54;3.30;;;3.00;;
9449;SDS011;4763;48.370;10.874;2023-08-30T10:35:22;4.23;;;2.67;;
9449;SDS011;4763;48.370;10.874;2023-08-30T10:37:55;2.50;;;2.30;;
9449;SDS011;4763;48.370;10.874;2023-08-30T10:40:23;1.80;;;1.47;;
9449;SDS011;4763;48.370;10.874;2023-08-30T10:42:59;2.23;;;1.80;;
9449;SDS011;4763;48.370;10.874;2023-08-30T10:45:26;3.20;;;2.00;;
9449;SDS011;4763;48.370;10.874;2023-08-30T10:47:56;5.40;;;2.50;;
9449;SDS011;4763;48.370;10.874;2023-08-30T10:50:27;4.67;;;2.33;;
9449;SDS011;4763;48.370;10.874;2023-08-30T10:52:57;2.37;;;2.17;;
9449;SDS011;4763;48.370;10.874;2023-08-30T10:55:24;2.33;;;2.13;;
9449;SDS011;4763;48.370;10.874;2023-08-30T10:57:58;2.27;;;2.07;;
9449;SDS011;4763;48.370;10.874;2023-08-30T11:00:29;2.13;;;1.90;;
9449;SDS011;4763;48.370;10.874;2023-08-30T11:02:56;2.27;;;2.03;;
9449;SDS011;4763;48.370;10.874;2023-08-30T11:05:24;3.13;;;1.93;;
9449;SDS011;4763;48.370;10.874;2023-08-30T11:07:52;2.73;;;2.00;;
9449;SDS011;4763;48.370;10.874;2023-08-30T11:10:21;2.17;;;1.80;;
9449;SDS011;4763;48.370;10.874;2023-08-30T11:12:48;2.10;;;1.90;;
9449;SDS011;4763;48.370;10.874;2023-08-30T11:15:15;1.77;;;1.63;;
9449;SDS011;4763;48.370;10.874;2023-08-30T11:17:42;2.47;;;1.50;;
9449;SDS011;4763;48.370;10.874;2023-08-30T11:20:10;3.10;;;1.60;;
9449;SDS011;4763;48.370;10.874;2023-08-30T11:22:39;1.87;;;1.67;;
9449;SDS011;4763;48.370;10.874;2023-08-30T11:25:07;1.80;;;1.70;;
9449;SDS011;4763;48.370;10.874;2023-08-30T11:27:36;2.33;;;1.90;;
9449;SDS011;4763;48.370;10.874;2023-08-30T11:30:03;5.63;;;1.83;;
9449;SDS011;4763;48.370;10.874;2023-08-30T11:32:32;2.60;;;2.00;;
9449;SDS011;4763;48.370;10.874;2023-08-30T11:35:00;2.20;;;1.93;;
9449;SDS011;4763;48.370;10.874;2023-08-30T11:37:27;2.10;;;1.87;;
9449;SDS011;4763;48.370;10.874;2023-08-30T11:39:54;1.70;;;1.60;;
9449;SDS011;4763;48.370;10.874;2023-08-30T11:42:22;2.60;;;1.73;;
9449;SDS011;4763;48.370;10.874;2023-08-30T11:44:51;3.23;;;1.97;;
9449;SDS011;4763;48.370;10.874;2023-08-30T11:47:18;1.75;;;1.65;;
9449;SDS011;4763;48.370;10.874;2023-08-30T11:49:45;2.00;;;1.80;;
9449;SDS011;4763;48.370;10.874;2023-08-30T11:52:12;2.90;;;1.70;;
9449;SDS011;4763;48.370;10.874;2023-08-30T11:54:39;2.03;;;1.80;;
9449;SDS011;4763;48.370;10.874;2023-08-30T11:57:06;2.50;;;1.85;;
9449;SDS011;4763;48.370;10.874;2023-08-30T11:59:34;1.50;;;1.40;;
9449;SDS011;4763;48.370;10.874;2023-08-30T12:02:03;2.17;;;1.77;;
9449;SDS011;4763;48.370;10.874;2023-08-30T12:04:30;2.10;;;1.52;;
9449;SDS011;4763;48.370;10.874;2023-08-30T12:06:57;2.42;;;2.00;;
9449;SDS011;4763;48.370;10.874;2023-08-30T12:09:29;3.63;;;2.08;;
9449;SDS011;4763;48.370;10.874;2023-08-30T12:12:04;2.20;;;1.95;;
9449;SDS011;4763;48.370;10.874;2023-08-30T12:14:34;1.92;;;1.40;;
9449;SDS011;4763;48.370;10.874;2023-08-30T12:17:03;1.73;;;1.63;;
9449;SDS011;4763;48.370;10.874;2023-08-30T12:19:30;1.55;;;1.40;;
9449;SDS011;4763;48.370;10.874;2023-08-30T12:22:02;1.60;;;1.50;;
9449;SDS011;4763;48.370;10.874;2023-08-30T12:24:39;2.50;;;1.65;;
9449;SDS011;4763;48.370;10.874;2023-08-30T12:27:07;2.67;;;1.38;;
9449;SDS011;4763;48.370;10.874;2023-08-30T12:29:34;1.63;;;1.52;;
9449;SDS011;4763;48.370;10.874;2023-08-30T12:32:02;1.55;;;1.17;;
9449;SDS011;4763;48.370;10.874;2023-08-30T12:34:29;1.92;;;1.50;;
9449;SDS011;4763;48.370;10.874;2023-08-30T12:36:56;2.03;;;1.48;;
9449;SDS011;4763;48.370;10.874;2023-08-30T12:39:23;1.92;;;1.30;;
9449;SDS011;4763;48.370;10.874;2023-08-30T12:41:50;2.80;;;1.67;;
9449;SDS011;4763;48.370;10.874;2023-08-30T12:44:17;2.13;;;1.58;;
9449;SDS011;4763;48.370;10.874;2023-08-30T12:46:44;3.45;;;1.33;;
9449;SDS011;4763;48.370;10.874;2023-08-30T12:49:15;1.45;;;1.35;;
9449;SDS011;4763;48.370;10.874;2023-08-30T12:51:41;1.95;;;1.30;;
9449;SDS011;4763;48.370;10.874;2023-08-30T12:54:08;1.95;;;1.75;;
9449;SDS011;4763;48.370;10.874;2023-08-30T12:56:35;1.50;;;1.40;;
9449;SDS011;4763;48.370;10.874;2023-08-30T12:59:05;2.55;;;1.60;;
9449;SDS011;4763;48.370;10.874;2023-08-30T13:01:32;2.15;;;1.60;;
9449;SDS011;4763;48.370;10.874;2023-08-30T13:03:58;1.30;;;1.20;;
9449;SDS011;4763;48.370;10.874;2023-08-30T13:06:26;2.08;;;1.67;;
9449;SDS011;4763;48.370;10.874;2023-08-30T13:08:53;1.60;;;1.50;;
9449;SDS011;4763;48.370;10.874;2023-08-30T13:11:20;1.85;;;1.50;;
9449;SDS011;4763;48.370;10.874;2023-08-30T13:13:47;1.60;;;1.50;;
9449;SDS011;4763;48.370;10.874;2023-08-30T13:16:13;3.92;;;1.50;;
9449;SDS011;4763;48.370;10.874;2023-08-30T13:18:40;1.75;;;1.50;;
9449;SDS011;4763;48.370;10.874;2023-08-30T13:21:07;2.00;;;1.42;;
9449;SDS011;4763;48.370;10.874;2023-08-30T13:23:35;1.70;;;1.60;;
9449;SDS011;4763;48.370;10.874;2023-08-30T13:26:02;1.30;;;1.20;;
9449;SDS011;4763;48.370;10.874;2023-08-30T13:28:29;2.45;;;1.50;;
9449;SDS011;4763;48.370;10.874;2023-08-30T13:30:56;2.03;;;1.50;;
9449;SDS011;4763;48.370;10.874;2023-08-30T13:33:22;2.55;;;1.58;;
9449;SDS011;4763;48.370;10.874;2023-08-30T13:35:49;1.15;;;1.13;;
9449;SDS011;4763;48.370;10.874;2023-08-30T13:38:16;1.65;;;1.20;;
9449;SDS011;4763;48.370;10.874;2023-08-30T13:40:45;2.45;;;1.27;;
9449;SDS011;4763;48.370;10.874;2023-08-30T13:43:12;2.97;;;1.50;;
9449;SDS011;4763;48.370;10.874;2023-08-30T13:45:38;3.97;;;1.45;;
9449;SDS011;4763;48.370;10.874;2023-08-30T13:48:05;1.42;;;1.10;;
9449;SDS011;4763;48.370;10.874;2023-08-30T13:50:32;1.92;;;1.17;;
9449;SDS011;4763;48.370;10.874;2023-08-30T13:52:59;1.80;;;1.15;;
9449;SDS011;4763;48.370;10.874;2023-08-30T13:55:28;2.03;;;1.30;;
9449;SDS011;4763;48.370;10.874;2023-08-30T13:57:57;1.55;;;1.38;;
9449;SDS011;4763;48.370;10.874;2023-08-30T14:00:24;1.25;;;1.15;;
9449;SDS011;4763;48.370;10.874;2023-08-30T14:02:51;1.85;;;1.40;;
9449;SDS011;4763;48.370;10.874;2023-08-30T14:05:18;2.00;;;1.13;;
9449;SDS011;4763;48.370;10.874;2023-08-30T14:07:44;1.38;;;1.20;;
9449;SDS011;4763;48.370;10.874;2023-08-30T14:10:11;0.98;;;0.90;;
9449;SDS011;4763;48.370;10.874;2023-08-30T14:12:43;3.28;;;1.30;;
9449;SDS011;4763;48.370;10.874;2023-08-30T14:15:13;1.02;;;0.93;;
9449;SDS011;4763;48.370;10.874;2023-08-30T14:17:41;2.00;;;1.20;;
9449;SDS011;4763;48.370;10.874;2023-08-30T14:20:08;3.25;;;1.05;;
9449;SDS011;4763;48.370;10.874;2023-08-30T14:22:35;1.30;;;1.00;;
9449;SDS011;4763;48.370;10.874;2023-08-30T14:25:03;1.60;;;1.38;;
9449;SDS011;4763;48.370;10.874;2023-08-30T14:27:32;1.25;;;1.15;;
9449;SDS011;4763;48.370;10.874;2023-08-30T14:29:59;6.85;;;1.40;;
9449;SDS011;4763;48.370;10.874;2023-08-30T14:32:27;1.17;;;1.08;;
9449;SDS011;4763;48.370;10.874;2023-08-30T14:34:54;1.23;;;1.13;;
9449;SDS011;4763;48.370;10.874;2023-08-30T14:37:21;1.17;;;1.08;;
9449;SDS011;4763;48.370;10.874;2023-08-30T14:39:48;1.40;;;1.30;;
9449;SDS011;4763;48.370;10.874;2023-08-30T14:42:15;1.50;;;1.40;;
9449;SDS011;4763;48.370;10.874;2023-08-30T14:44:41;2.10;;;1.50;;
9449;SDS011;4763;48.370;10.874;2023-08-30T14:47:08;3.92;;;1.40;;
9449;SDS011;4763;48.370;10.874;2023-08-30T14:49:36;1.33;;;1.23;;
9449;SDS011;4763;48.370;10.874;2023-08-30T14:52:03;1.85;;;1.40;;
9449;SDS011;4763;48.370;10.874;2023-08-30T14:54:30;1.52;;;1.30;;
9449;SDS011;4763;48.370;10.874;2023-08-30T14:56:56;1.67;;;1.00;;
9449;SDS011;4763;48.370;10.874;2023-08-30T14:59:25;1.85;;;1.33;;
9449;SDS011;4763;48.370;10.874;2023-08-30T15:01:52;1.63;;;1.17;;